Inicio METAR Ruta Wind Satelite

Informe Meteorológico

Fecha: 2021/09/21 16:22:53 Local
2021.09.21 21:22 UTC


Operación:VFR
SKMD 212100Z 24012KT 9999 TS SCT030CB SCT200 24/16 Q1016 RMK CB VCSH/NE/W A3002 =

SKMD 211600Z 05006KT 9999 VCSH SCT030TCU BKN200 25/16 Q1021 RMK TCU VCSH/SE/S A3017
SKMD 211400Z 34004KT 9999 SCT023 SCT100 22/16 Q1022 RMK HZ A3019